createdAt,value
2018-05-03T18:26:42.014Z,5.40
2018-05-03T18:29:22.233Z,4.70
2018-05-03T18:32:02.779Z,4.70
2018-05-03T18:34:43.213Z,5.03
2018-05-03T18:37:24.797Z,3.93
2018-05-03T18:40:05.262Z,4.37
2018-05-03T18:42:45.588Z,3.97
2018-05-03T18:45:27.154Z,4.30
2018-05-03T18:48:07.705Z,4.40
2018-05-03T18:50:48.783Z,4.00
2018-05-03T18:53:29.968Z,3.67
2018-05-03T18:56:10.437Z,2.80
2018-05-03T18:58:50.753Z,3.30
2018-05-03T19:01:31.046Z,3.70
2018-05-03T19:04:11.370Z,4.00
2018-05-03T19:06:51.689Z,4.67
2018-05-03T19:09:32.976Z,4.17
2018-05-03T19:12:14.025Z,4.40
2018-05-03T19:14:55.125Z,5.27
2018-05-03T19:17:36.172Z,4.87
2018-05-03T19:20:16.435Z,4.90
2018-05-03T19:22:57.725Z,5.20
2018-05-03T19:25:41.037Z,6.23
2018-05-03T19:28:21.575Z,6.73
2018-05-03T19:31:02.389Z,7.10
2018-05-03T19:33:43.595Z,7.60
2018-05-03T19:36:30.458Z,7.77
2018-05-03T19:39:10.909Z,7.80
2018-05-03T19:41:52.148Z,8.20
2018-05-03T19:44:33.938Z,7.90
2018-05-03T19:47:14.445Z,8.33
2018-05-03T19:49:56.705Z,8.40
2018-05-03T19:52:47.336Z,7.93
2018-05-03T19:55:30.425Z,9.63
2018-05-03T19:58:10.905Z,8.43
2018-05-03T20:00:51.377Z,9.10
2018-05-03T20:03:31.752Z,9.03
2018-05-03T20:06:12.894Z,10.00
2018-05-03T20:08:54.113Z,9.73
2018-05-03T20:11:35.465Z,10.00
2018-05-03T20:14:16.469Z,9.20
2018-05-03T20:16:58.122Z,9.77
2018-05-03T20:19:40.309Z,8.47
2018-05-03T20:22:20.983Z,10.33
2018-05-03T20:25:02.180Z,10.87
2018-05-03T20:27:43.432Z,11.40
2018-05-03T20:30:27.056Z,11.80
2018-05-03T20:33:08.345Z,12.87
2018-05-03T20:35:48.684Z,12.00
2018-05-03T20:38:29.054Z,11.03
2018-05-03T20:41:10.190Z,12.23
2018-05-03T20:43:50.521Z,11.83
2018-05-03T20:46:31.129Z,11.03
2018-05-03T20:49:11.568Z,8.33
2018-05-03T20:51:51.941Z,10.23
2018-05-03T20:54:33.779Z,10.53
2018-05-03T20:57:14.233Z,8.20
2018-05-03T20:59:56.293Z,8.67
2018-05-03T21:02:36.950Z,10.83
2018-05-03T21:05:17.302Z,12.60
2018-05-03T21:07:57.705Z,14.37
2018-05-03T21:10:38.157Z,13.97
2018-05-03T21:13:20.018Z,14.70
2018-05-03T21:16:00.307Z,14.23
2018-05-03T21:18:40.662Z,14.47
2018-05-03T21:21:21.748Z,13.63
2018-05-03T21:24:02.745Z,13.10
2018-05-03T21:26:43.686Z,12.17
2018-05-03T21:29:24.806Z,11.03
2018-05-03T21:32:05.228Z,10.70
2018-05-03T21:34:45.579Z,10.67
2018-05-03T21:37:43.116Z,10.97
2018-05-03T21:40:27.994Z,10.67
2018-05-03T21:43:09.148Z,9.73
2018-05-03T21:45:49.626Z,9.47
2018-05-03T21:48:29.919Z,10.00
2018-05-03T21:51:10.270Z,11.13
2018-05-03T21:53:52.229Z,10.17
2018-05-03T21:56:33.816Z,11.13
2018-05-03T21:59:14.166Z,9.83
2018-05-03T22:01:55.885Z,11.13
2018-05-03T22:04:36.201Z,11.10
2018-05-03T22:07:16.561Z,10.77
2018-05-03T22:09:57.034Z,10.90
2018-05-03T22:12:37.752Z,10.67
2018-05-03T22:15:18.307Z,11.63
2018-05-03T22:17:58.692Z,11.30
2018-05-03T22:20:39.001Z,11.67
2018-05-03T22:23:19.437Z,12.47
2018-05-03T22:26:09.535Z,12.80
2018-05-03T22:28:50.021Z,12.30
2018-05-03T22:31:30.489Z,12.70
2018-05-03T22:34:11.169Z,11.73
2018-05-03T22:36:51.518Z,10.20
2018-05-03T22:39:31.855Z,9.10
2018-05-03T22:42:12.133Z,9.27
2018-05-03T22:44:52.463Z,11.57
2018-05-03T22:47:33.480Z,11.90
2018-05-03T22:50:13.833Z,12.63
2018-05-03T22:52:54.747Z,13.30
2018-05-03T22:55:35.068Z,13.70
2018-05-03T22:58:15.451Z,13.33
2018-05-03T23:00:56.619Z,12.70
2018-05-03T23:03:37.043Z,12.50
2018-05-03T23:06:17.492Z,12.50
2018-05-03T23:08:58.001Z,12.60
2018-05-03T23:11:38.441Z,12.40
2018-05-03T23:14:19.520Z,13.23
2018-05-03T23:16:59.957Z,12.43
2018-05-03T23:19:41.158Z,12.77
2018-05-03T23:22:21.340Z,12.17
2018-05-03T23:25:02.292Z,15.63
2018-05-03T23:27:42.730Z,14.17
2018-05-03T23:30:22.944Z,11.27
2018-05-03T23:33:03.594Z,11.67
2018-05-03T23:35:44.649Z,10.67
2018-05-03T23:38:25.785Z,10.97
2018-05-03T23:41:06.113Z,9.70
2018-05-03T23:43:46.596Z,9.60
2018-05-03T23:46:27.472Z,9.47
2018-05-03T23:49:07.924Z,10.53
2018-05-03T23:51:48.233Z,9.97
2018-05-03T23:54:29.049Z,10.07
2018-05-03T23:57:09.377Z,8.93
2018-05-03T23:59:49.673Z,8.90
